21:54
Airports
History
Links
Donate
Help keep this website running!
PayPal
Bitcoin
This page is community maintained. The information is intended for PC simulator navigation or reference.
Always use approved charts for navigation.
SIPE
ITAPESSOCA
ITAPESSOCA (SIPE)
Itamarac√°, Pernambuco, Brazil (53900)
(U)
Lat/Lng:7° 39' 21.65" S / 34° 51' 23.44" W
-7.656013 / -34.85651
Elevation:20'ft / 6mMSL
ID / ICAO:SIPE
Runways:1
Longest:05-23
Asphalt 1,963m / 6,442ft
Nearby Weather22:00 GMT 2017-10-16
Nearby weather at SBRF, Recife Intl located 32.8 nautical miles from SIPE
Altimeter: 30.00
Visibility: 6.2 statute miles
Wind: 10 knots (from 140°)
Temp: 26°c / 79°f
Humidity: 69.6%

METAR: SBRF 162200Z 14010KT 9999 FEW023 BKN070 26/20 Q1016

(Powered by phpweather)
Runway 05 / 23
Dimensions:1963.4 x 30.5m 6442' x 100'ft
Surface:Asphalt
Edge Lights:Low intensity
Runway 05 [A]Runway 23 [B]
Heading:023°TH 203°TH
Lat:
Lng:
7° 39' 50.72"S
34° 51' 36.46"W
7° 38' 52.57"S
34° 51' 10.41"W
User Notes and Comments
7° 39' 21.65" S / 34° 51' 23.44" W
Distance To
Airport ID:
Nearby Airports
(U) Cimento Poty 8.6 NM
SIXW N 357°
(U) Encanta Moca 30.5 NM
SNEM S 184°
(C) Recife Intl 32.8 NM
SBRF ( WX ) S 187°
(C) Presidente Castro Pinto 35.7 NM
SBJP ( WX ) N 349°
(U) JOAO PESSOA AEROCLUBE 39.0 NM
SNJO N
(C) Rio Tinto 62.0 NM
SNRN NNW 344°
(U) Fazenda Lagoa do Cavalo 64.0 NM
SDWI SW 236°
VFR Chart
Flight Planning at SkyVector.com